sensor_id;sensor_type;location;lat;lon;timestamp;P1;durP1;ratioP1;P2;durP2;ratioP2
21301;SDS011;10810;48.270;9.996;2022-08-20T05:56:31;5.53;;;3.03;;
21301;SDS011;10810;48.270;9.996;2022-08-20T05:59:36;6.37;;;3.33;;
21301;SDS011;10810;48.270;9.996;2022-08-20T06:06:23;6.45;;;3.63;;
21301;SDS011;10810;48.270;9.996;2022-08-20T06:09:31;7.37;;;3.47;;
21301;SDS011;10810;48.270;9.996;2022-08-20T06:12:38;5.55;;;3.35;;
21301;SDS011;10810;48.270;9.996;2022-08-20T06:16:28;8.57;;;3.67;;
21301;SDS011;10810;48.270;9.996;2022-08-20T06:19:06;7.30;;;3.47;;
21301;SDS011;10810;48.270;9.996;2022-08-20T06:21:50;6.70;;;3.63;;
21301;SDS011;10810;48.270;9.996;2022-08-20T06:28:26;6.03;;;3.20;;
21301;SDS011;10810;48.270;9.996;2022-08-20T06:31:04;6.13;;;3.60;;
21301;SDS011;10810;48.270;9.996;2022-08-20T06:33:45;6.00;;;3.33;;
21301;SDS011;10810;48.270;9.996;2022-08-20T06:36:50;5.55;;;3.00;;
21301;SDS011;10810;48.270;9.996;2022-08-20T06:39:53;6.85;;;3.45;;
21301;SDS011;10810;48.270;9.996;2022-08-20T06:42:53;7.55;;;3.65;;
21301;SDS011;10810;48.270;9.996;2022-08-20T06:46:14;6.15;;;3.33;;
21301;SDS011;10810;48.270;9.996;2022-08-20T06:48:54;6.07;;;3.30;;
21301;SDS011;10810;48.270;9.996;2022-08-20T06:55:22;7.07;;;3.70;;
21301;SDS011;10810;48.270;9.996;2022-08-20T06:58:08;7.32;;;3.80;;
21301;SDS011;10810;48.270;9.996;2022-08-20T07:00:38;6.65;;;3.70;;
21301;SDS011;10810;48.270;9.996;2022-08-20T07:07:23;7.82;;;3.40;;
21301;SDS011;10810;48.270;9.996;2022-08-20T07:12:53;8.00;;;3.95;;
21301;SDS011;10810;48.270;9.996;2022-08-20T07:15:59;6.73;;;3.57;;
21301;SDS011;10810;48.270;9.996;2022-08-20T07:25:15;9.57;;;3.67;;
21301;SDS011;10810;48.270;9.996;2022-08-20T07:28:10;6.50;;;3.40;;
21301;SDS011;10810;48.270;9.996;2022-08-20T07:31:03;5.78;;;3.20;;
21301;SDS011;10810;48.270;9.996;2022-08-20T07:33:47;6.83;;;3.53;;
21301;SDS011;10810;48.270;9.996;2022-08-20T07:36:16;7.05;;;3.67;;
21301;SDS011;10810;48.270;9.996;2022-08-20T07:38:51;5.70;;;3.40;;
21301;SDS011;10810;48.270;9.996;2022-08-20T07:41:51;6.40;;;3.45;;
21301;SDS011;10810;48.270;9.996;2022-08-20T07:44:36;7.00;;;3.55;;
21301;SDS011;10810;48.270;9.996;2022-08-20T07:54:37;5.80;;;3.08;;
21301;SDS011;10810;48.270;9.996;2022-08-20T08:13:58;5.25;;;2.90;;
21301;SDS011;10810;48.270;9.996;2022-08-20T08:19:53;6.60;;;2.60;;
21301;SDS011;10810;48.270;9.996;2022-08-20T08:24:44;4.53;;;2.65;;
21301;SDS011;10810;48.270;9.996;2022-08-20T08:26:07;3.88;;;2.28;;
21301;SDS011;10810;48.270;9.996;2022-08-20T08:35:03;4.38;;;2.67;;
21301;SDS011;10810;48.270;9.996;2022-08-20T08:38:04;4.53;;;2.42;;
21301;SDS011;10810;48.270;9.996;2022-08-20T08:41:13;4.72;;;2.90;;
21301;SDS011;10810;48.270;9.996;2022-08-20T08:43:44;5.68;;;3.08;;
21301;SDS011;10810;48.270;9.996;2022-08-20T08:46:18;4.40;;;2.85;;
21301;SDS011;10810;48.270;9.996;2022-08-20T08:49:03;5.22;;;2.97;;
21301;SDS011;10810;48.270;9.996;2022-08-20T08:51:46;4.25;;;2.47;;
21301;SDS011;10810;48.270;9.996;2022-08-20T08:54:21;4.38;;;2.75;;
21301;SDS011;10810;48.270;9.996;2022-08-20T08:57:34;4.35;;;2.55;;
21301;SDS011;10810;48.270;9.996;2022-08-20T09:00:39;4.32;;;2.60;;
21301;SDS011;10810;48.270;9.996;2022-08-20T09:03:20;4.95;;;2.78;;
21301;SDS011;10810;48.270;9.996;2022-08-20T09:07:11;3.97;;;2.22;;
21301;SDS011;10810;48.270;9.996;2022-08-20T09:19:02;5.10;;;2.70;;
21301;SDS011;10810;48.270;9.996;2022-08-20T09:21:49;3.58;;;2.20;;
21301;SDS011;10810;48.270;9.996;2022-08-20T09:25:00;4.45;;;2.40;;
21301;SDS011;10810;48.270;9.996;2022-08-20T09:27:40;4.25;;;2.50;;
21301;SDS011;10810;48.270;9.996;2022-08-20T09:30:28;4.63;;;2.75;;
21301;SDS011;10810;48.270;9.996;2022-08-20T09:33:20;3.63;;;2.20;;
21301;SDS011;10810;48.270;9.996;2022-08-20T09:35:47;4.95;;;2.70;;
21301;SDS011;10810;48.270;9.996;2022-08-20T09:38:16;4.07;;;2.20;;
21301;SDS011;10810;48.270;9.996;2022-08-20T09:40:56;4.53;;;2.60;;
21301;SDS011;10810;48.270;9.996;2022-08-20T09:43:23;3.80;;;2.40;;
21301;SDS011;10810;48.270;9.996;2022-08-20T09:46:07;3.75;;;2.00;;
21301;SDS011;10810;48.270;9.996;2022-08-20T09:48:39;4.53;;;2.13;;
21301;SDS011;10810;48.270;9.996;2022-08-20T09:51:08;4.38;;;2.10;;
21301;SDS011;10810;48.270;9.996;2022-08-20T09:53:37;3.08;;;2.03;;
21301;SDS011;10810;48.270;9.996;2022-08-20T10:00:26;4.28;;;2.42;;
21301;SDS011;10810;48.270;9.996;2022-08-20T10:02:14;4.35;;;2.13;;
21301;SDS011;10810;48.270;9.996;2022-08-20T10:04:47;4.07;;;2.20;;
21301;SDS011;10810;48.270;9.996;2022-08-20T10:07:14;4.32;;;2.13;;
21301;SDS011;10810;48.270;9.996;2022-08-20T10:09:54;4.38;;;2.60;;
21301;SDS011;10810;48.270;9.996;2022-08-20T10:12:24;4.60;;;2.25;;
21301;SDS011;10810;48.270;9.996;2022-08-20T10:14:53;5.05;;;2.20;;
21301;SDS011;10810;48.270;9.996;2022-08-20T10:17:35;3.53;;;2.45;;
21301;SDS011;10810;48.270;9.996;2022-08-20T10:20:03;5.53;;;2.60;;
21301;SDS011;10810;48.270;9.996;2022-08-20T10:22:32;3.95;;;2.50;;
21301;SDS011;10810;48.270;9.996;2022-08-20T10:24:59;4.07;;;2.50;;
21301;SDS011;10810;48.270;9.996;2022-08-20T10:27:28;4.05;;;2.47;;
21301;SDS011;10810;48.270;9.996;2022-08-20T10:29:57;4.03;;;2.42;;
21301;SDS011;10810;48.270;9.996;2022-08-20T10:32:24;4.00;;;2.15;;
21301;SDS011;10810;48.270;9.996;2022-08-20T10:34:51;3.55;;;2.30;;
21301;SDS011;10810;48.270;9.996;2022-08-20T10:37:26;2.40;;;1.80;;
21301;SDS011;10810;48.270;9.996;2022-08-20T10:39:54;2.80;;;1.80;;
21301;SDS011;10810;48.270;9.996;2022-08-20T10:42:31;2.75;;;1.95;;
21301;SDS011;10810;48.270;9.996;2022-08-20T10:45:12;3.80;;;2.10;;
21301;SDS011;10810;48.270;9.996;2022-08-20T10:47:46;2.60;;;1.80;;
21301;SDS011;10810;48.270;9.996;2022-08-20T10:50:27;3.35;;;1.95;;
21301;SDS011;10810;48.270;9.996;2022-08-20T10:53:02;3.03;;;1.80;;
21301;SDS011;10810;48.270;9.996;2022-08-20T10:55:38;3.30;;;2.20;;
21301;SDS011;10810;48.270;9.996;2022-08-20T10:58:22;3.60;;;2.13;;
21301;SDS011;10810;48.270;9.996;2022-08-20T11:00:52;3.45;;;2.00;;
21301;SDS011;10810;48.270;9.996;2022-08-20T11:06:45;3.88;;;1.95;;
21301;SDS011;10810;48.270;9.996;2022-08-20T11:09:14;2.55;;;1.80;;
21301;SDS011;10810;48.270;9.996;2022-08-20T11:12:10;3.78;;;2.10;;
21301;SDS011;10810;48.270;9.996;2022-08-20T11:21:02;3.67;;;1.90;;
21301;SDS011;10810;48.270;9.996;2022-08-20T11:23:54;2.92;;;1.77;;
21301;SDS011;10810;48.270;9.996;2022-08-20T11:26:22;3.83;;;2.22;;
21301;SDS011;10810;48.270;9.996;2022-08-20T11:29:57;3.42;;;1.77;;
21301;SDS011;10810;48.270;9.996;2022-08-20T11:32:31;2.42;;;1.60;;
21301;SDS011;10810;48.270;9.996;2022-08-20T11:35:13;1.90;;;1.30;;
21301;SDS011;10810;48.270;9.996;2022-08-20T11:37:55;2.28;;;1.40;;
21301;SDS011;10810;48.270;9.996;2022-08-20T11:40:25;2.40;;;1.60;;
21301;SDS011;10810;48.270;9.996;2022-08-20T11:42:53;1.80;;;1.20;;
21301;SDS011;10810;48.270;9.996;2022-08-20T11:45:24;2.03;;;1.08;;
21301;SDS011;10810;48.270;9.996;2022-08-20T11:48:22;2.58;;;1.27;;
21301;SDS011;10810;48.270;9.996;2022-08-20T11:57:20;2.58;;;1.20;;
21301;SDS011;10810;48.270;9.996;2022-08-20T12:00:33;3.03;;;1.15;;
21301;SDS011;10810;48.270;9.996;2022-08-20T12:03:23;2.88;;;1.20;;
21301;SDS011;10810;48.270;9.996;2022-08-20T12:05:59;1.83;;;1.17;;
21301;SDS011;10810;48.270;9.996;2022-08-20T12:08:34;3.78;;;1.23;;
21301;SDS011;10810;48.270;9.996;2022-08-20T12:14:11;1.95;;;1.23;;
21301;SDS011;10810;48.270;9.996;2022-08-20T12:16:46;2.97;;;1.35;;
21301;SDS011;10810;48.270;9.996;2022-08-20T12:22:30;2.83;;;1.70;;
21301;SDS011;10810;48.270;9.996;2022-08-20T12:25:00;3.08;;;1.55;;
21301;SDS011;10810;48.270;9.996;2022-08-20T12:30:22;2.25;;;1.60;;
21301;SDS011;10810;48.270;9.996;2022-08-20T12:32:52;3.75;;;1.23;;
21301;SDS011;10810;48.270;9.996;2022-08-20T12:35:19;4.63;;;1.30;;
21301;SDS011;10810;48.270;9.996;2022-08-20T12:37:48;2.53;;;1.30;;
21301;SDS011;10810;48.270;9.996;2022-08-20T12:40:19;2.92;;;1.17;;
21301;SDS011;10810;48.270;9.996;2022-08-20T12:42:54;2.65;;;1.30;;
21301;SDS011;10810;48.270;9.996;2022-08-20T12:45:23;2.90;;;1.30;;
21301;SDS011;10810;48.270;9.996;2022-08-20T12:48:11;2.33;;;1.30;;
21301;SDS011;10810;48.270;9.996;2022-08-20T12:50:41;2.88;;;1.02;;
21301;SDS011;10810;48.270;9.996;2022-08-20T12:53:10;2.72;;;1.30;;
21301;SDS011;10810;48.270;9.996;2022-08-20T12:55:39;1.67;;;1.13;;
21301;SDS011;10810;48.270;9.996;2022-08-20T12:58:14;2.03;;;1.17;;
21301;SDS011;10810;48.270;9.996;2022-08-20T13:00:43;2.47;;;1.40;;
21301;SDS011;10810;48.270;9.996;2022-08-20T13:03:14;1.92;;;1.13;;
21301;SDS011;10810;48.270;9.996;2022-08-20T13:05:48;1.52;;;1.10;;
21301;SDS011;10810;48.270;9.996;2022-08-20T13:08:17;1.95;;;1.20;;
21301;SDS011;10810;48.270;9.996;2022-08-20T13:11:01;2.45;;;1.10;;
21301;SDS011;10810;48.270;9.996;2022-08-20T13:13:42;2.15;;;1.30;;
21301;SDS011;10810;48.270;9.996;2022-08-20T13:16:14;2.20;;;1.23;;
21301;SDS011;10810;48.270;9.996;2022-08-20T13:18:41;1.83;;;1.13;;
21301;SDS011;10810;48.270;9.996;2022-08-20T13:21:10;2.83;;;1.25;;
21301;SDS011;10810;48.270;9.996;2022-08-20T13:23:50;1.75;;;1.10;;
21301;SDS011;10810;48.270;9.996;2022-08-20T13:26:27;3.45;;;1.30;;
21301;SDS011;10810;48.270;9.996;2022-08-20T13:28:56;1.80;;;1.13;;
21301;SDS011;10810;48.270;9.996;2022-08-20T13:31:24;2.17;;;1.15;;
21301;SDS011;10810;48.270;9.996;2022-08-20T13:33:57;4.22;;;1.20;;
21301;SDS011;10810;48.270;9.996;2022-08-20T13:36:25;2.83;;;1.13;;
21301;SDS011;10810;48.270;9.996;2022-08-20T13:38:52;2.35;;;1.30;;
21301;SDS011;10810;48.270;9.996;2022-08-20T13:42:58;2.47;;;1.20;;
21301;SDS011;10810;48.270;9.996;2022-08-20T13:47:14;2.35;;;1.30;;
21301;SDS011;10810;48.270;9.996;2022-08-20T13:49:48;2.53;;;1.40;;
21301;SDS011;10810;48.270;9.996;2022-08-20T13:52:46;2.38;;;1.50;;
21301;SDS011;10810;48.270;9.996;2022-08-20T13:55:16;2.40;;;1.40;;
21301;SDS011;10810;48.270;9.996;2022-08-20T13:57:49;4.65;;;1.40;;
21301;SDS011;10810;48.270;9.996;2022-08-20T14:00:22;2.03;;;1.42;;
21301;SDS011;10810;48.270;9.996;2022-08-20T14:03:04;1.40;;;1.00;;
21301;SDS011;10810;48.270;9.996;2022-08-20T14:05:47;2.90;;;1.30;;
21301;SDS011;10810;48.270;9.996;2022-08-20T14:08:48;2.53;;;1.40;;
21301;SDS011;10810;48.270;9.996;2022-08-20T14:11:09;3.33;;;1.40;;
21301;SDS011;10810;48.270;9.996;2022-08-20T14:13:38;2.15;;;1.17;;
21301;SDS011;10810;48.270;9.996;2022-08-20T14:19:07;1.98;;;1.27;;
21301;SDS011;10810;48.270;9.996;2022-08-20T14:21:50;2.20;;;1.33;;
21301;SDS011;10810;48.270;9.996;2022-08-20T14:24:23;2.40;;;1.25;;
21301;SDS011;10810;48.270;9.996;2022-08-20T14:27:02;1.55;;;1.10;;
21301;SDS011;10810;48.270;9.996;2022-08-20T14:29:30;1.92;;;1.30;;
21301;SDS011;10810;48.270;9.996;2022-08-20T14:32:02;1.55;;;1.10;;
21301;SDS011;10810;48.270;9.996;2022-08-20T14:34:29;2.13;;;1.27;;
21301;SDS011;10810;48.270;9.996;2022-08-20T14:37:07;2.08;;;1.15;;
21301;SDS011;10810;48.270;9.996;2022-08-20T14:39:35;1.73;;;1.20;;
21301;SDS011;10810;48.270;9.996;2022-08-20T14:42:02;1.45;;;1.10;;
21301;SDS011;10810;48.270;9.996;2022-08-20T14:44:32;1.65;;;1.10;;
21301;SDS011;10810;48.270;9.996;2022-08-20T14:47:16;1.70;;;1.13;;
21301;SDS011;10810;48.270;9.996;2022-08-20T14:49:49;1.90;;;1.13;;
21301;SDS011;10810;48.270;9.996;2022-08-20T14:52:34;2.17;;;1.20;;
21301;SDS011;10810;48.270;9.996;2022-08-20T14:55:02;1.67;;;1.27;;
21301;SDS011;10810;48.270;9.996;2022-08-20T14:57:54;1.80;;;1.30;;
21301;SDS011;10810;48.270;9.996;2022-08-20T15:02:28;1.58;;;1.15;;
21301;SDS011;10810;48.270;9.996;2022-08-20T15:03:51;2.28;;;1.40;;
21301;SDS011;10810;48.270;9.996;2022-08-20T15:06:20;2.38;;;1.42;;
21301;SDS011;10810;48.270;9.996;2022-08-20T15:08:47;2.05;;;1.10;;
21301;SDS011;10810;48.270;9.996;2022-08-20T15:11:18;2.42;;;1.30;;
21301;SDS011;10810;48.270;9.996;2022-08-20T15:13:46;1.60;;;1.17;;
21301;SDS011;10810;48.270;9.996;2022-08-20T15:16:18;2.00;;;1.33;;
21301;SDS011;10810;48.270;9.996;2022-08-20T15:18:45;2.38;;;1.35;;
21301;SDS011;10810;48.270;9.996;2022-08-20T15:21:17;2.67;;;1.50;;
21301;SDS011;10810;48.270;9.996;2022-08-20T15:23:44;2.15;;;1.40;;
21301;SDS011;10810;48.270;9.996;2022-08-20T15:26:16;2.38;;;1.40;;
21301;SDS011;10810;48.270;9.996;2022-08-20T15:28:46;2.03;;;1.33;;
21301;SDS011;10810;48.270;9.996;2022-08-20T15:31:29;2.25;;;1.40;;
21301;SDS011;10810;48.270;9.996;2022-08-20T15:34:01;1.95;;;1.38;;
21301;SDS011;10810;48.270;9.996;2022-08-20T15:36:50;1.95;;;1.42;;
21301;SDS011;10810;48.270;9.996;2022-08-20T15:39:18;1.95;;;1.27;;
21301;SDS011;10810;48.270;9.996;2022-08-20T15:41:47;1.67;;;1.30;;
21301;SDS011;10810;48.270;9.996;2022-08-20T15:44:15;3.42;;;1.50;;
21301;SDS011;10810;48.270;9.996;2022-08-20T15:46:42;2.47;;;1.50;;
21301;SDS011;10810;48.270;9.996;2022-08-20T15:49:11;1.92;;;1.20;;
21301;SDS011;10810;48.270;9.996;2022-08-20T15:51:39;2.00;;;1.30;;
21301;SDS011;10810;48.270;9.996;2022-08-20T15:54:18;1.73;;;1.15;;
21301;SDS011;10810;48.270;9.996;2022-08-20T15:56:51;2.60;;;1.60;;
21301;SDS011;10810;48.270;9.996;2022-08-20T15:59:28;3.53;;;1.40;;
21301;SDS011;10810;48.270;9.996;2022-08-20T16:02:13;3.03;;;1.42;;
21301;SDS011;10810;48.270;9.996;2022-08-20T16:05:24;2.58;;;1.38;;
21301;SDS011;10810;48.270;9.996;2022-08-20T16:08:03;3.00;;;1.40;;
21301;SDS011;10810;48.270;9.996;2022-08-20T16:10:41;2.10;;;1.35;;
21301;SDS011;10810;48.270;9.996;2022-08-20T16:13:26;2.63;;;1.40;;
21301;SDS011;10810;48.270;9.996;2022-08-20T16:15:58;1.70;;;1.30;;
21301;SDS011;10810;48.270;9.996;2022-08-20T16:18:31;2.45;;;1.30;;
21301;SDS011;10810;48.270;9.996;2022-08-20T16:21:07;2.05;;;1.30;;
21301;SDS011;10810;48.270;9.996;2022-08-20T16:23:39;2.38;;;1.45;;
21301;SDS011;10810;48.270;9.996;2022-08-20T16:26:24;2.28;;;1.40;;
21301;SDS011;10810;48.270;9.996;2022-08-20T16:29:17;1.90;;;1.30;;
21301;SDS011;10810;48.270;9.996;2022-08-20T16:31:49;1.92;;;1.42;;
21301;SDS011;10810;48.270;9.996;2022-08-20T16:34:24;2.45;;;1.30;;
21301;SDS011;10810;48.270;9.996;2022-08-20T16:37:04;2.10;;;1.30;;
21301;SDS011;10810;48.270;9.996;2022-08-20T16:39:47;3.90;;;1.52;;
21301;SDS011;10810;48.270;9.996;2022-08-20T16:42:22;2.10;;;1.40;;
21301;SDS011;10810;48.270;9.996;2022-08-20T16:45:00;2.70;;;1.60;;
21301;SDS011;10810;48.270;9.996;2022-08-20T16:47:29;2.58;;;1.38;;
21301;SDS011;10810;48.270;9.996;2022-08-20T16:50:48;1.83;;;1.25;;
21301;SDS011;10810;48.270;9.996;2022-08-20T16:53:09;2.28;;;1.33;;
21301;SDS011;10810;48.270;9.996;2022-08-20T16:57:16;1.98;;;1.38;;
21301;SDS011;10810;48.270;9.996;2022-08-20T16:59:15;2.08;;;1.25;;
21301;SDS011;10810;48.270;9.996;2022-08-20T17:05:09;2.10;;;1.30;;
21301;SDS011;10810;48.270;9.996;2022-08-20T17:08:07;2.20;;;1.40;;
21301;SDS011;10810;48.270;9.996;2022-08-20T17:11:13;1.63;;;1.15;;
21301;SDS011;10810;48.270;9.996;2022-08-20T17:17:16;1.90;;;1.30;;
21301;SDS011;10810;48.270;9.996;2022-08-20T17:19:51;2.13;;;1.40;;
21301;SDS011;10810;48.270;9.996;2022-08-20T17:22:20;1.83;;;1.30;;
21301;SDS011;10810;48.270;9.996;2022-08-20T17:24:48;2.38;;;1.33;;
21301;SDS011;10810;48.270;9.996;2022-08-20T17:30:06;1.27;;;1.02;;
21301;SDS011;10810;48.270;9.996;2022-08-20T17:32:46;1.70;;;1.20;;
21301;SDS011;10810;48.270;9.996;2022-08-20T17:35:27;1.48;;;1.00;;
21301;SDS011;10810;48.270;9.996;2022-08-20T17:38:00;2.53;;;1.30;;
21301;SDS011;10810;48.270;9.996;2022-08-20T17:40:30;1.63;;;1.13;;
21301;SDS011;10810;48.270;9.996;2022-08-20T17:43:26;1.75;;;1.10;;
21301;SDS011;10810;48.270;9.996;2022-08-20T17:45:59;1.55;;;1.00;;
21301;SDS011;10810;48.270;9.996;2022-08-20T17:51:30;2.03;;;1.30;;
21301;SDS011;10810;48.270;9.996;2022-08-20T17:54:33;1.65;;;1.10;;
21301;SDS011;10810;48.270;9.996;2022-08-20T17:57:06;2.03;;;1.20;;
21301;SDS011;10810;48.270;9.996;2022-08-20T17:59:46;2.20;;;1.30;;
21301;SDS011;10810;48.270;9.996;2022-08-20T18:02:20;2.55;;;1.23;;
21301;SDS011;10810;48.270;9.996;2022-08-20T18:04:53;1.95;;;1.33;;
21301;SDS011;10810;48.270;9.996;2022-08-20T18:07:23;2.25;;;1.20;;
21301;SDS011;10810;48.270;9.996;2022-08-20T18:09:55;1.55;;;1.08;;
21301;SDS011;10810;48.270;9.996;2022-08-20T18:12:47;1.55;;;1.15;;
21301;SDS011;10810;48.270;9.996;2022-08-20T18:15:24;1.77;;;1.05;;
21301;SDS011;10810;48.270;9.996;2022-08-20T18:18:14;1.50;;;1.10;;
21301;SDS011;10810;48.270;9.996;2022-08-20T18:24:11;1.58;;;1.20;;
21301;SDS011;10810;48.270;9.996;2022-08-20T18:26:43;1.63;;;1.30;;
21301;SDS011;10810;48.270;9.996;2022-08-20T18:29:15;1.63;;;1.10;;
21301;SDS011;10810;48.270;9.996;2022-08-20T18:31:48;1.83;;;0.95;;
21301;SDS011;10810;48.270;9.996;2022-08-20T18:34:18;1.58;;;1.05;;
21301;SDS011;10810;48.270;9.996;2022-08-20T18:37:03;1.25;;;0.93;;
21301;SDS011;10810;48.270;9.996;2022-08-20T18:39:35;1.02;;;0.85;;
21301;SDS011;10810;48.270;9.996;2022-08-20T18:42:06;2.03;;;0.90;;
21301;SDS011;10810;48.270;9.996;2022-08-20T18:44:58;3.13;;;1.00;;
21301;SDS011;10810;48.270;9.996;2022-08-20T18:48:01;1.33;;;0.80;;
21301;SDS011;10810;48.270;9.996;2022-08-20T18:50:54;1.77;;;1.05;;
21301;SDS011;10810;48.270;9.996;2022-08-20T18:56:36;1.65;;;1.00;;
21301;SDS011;10810;48.270;9.996;2022-08-20T18:59:10;0.90;;;0.80;;
21301;SDS011;10810;48.270;9.996;2022-08-20T19:01:47;1.85;;;1.13;;
21301;SDS011;10810;48.270;9.996;2022-08-20T19:04:32;2.00;;;1.02;;
21301;SDS011;10810;48.270;9.996;2022-08-20T19:07:36;1.15;;;0.85;;
21301;SDS011;10810;48.270;9.996;2022-08-20T19:16:07;0.98;;;0.73;;
21301;SDS011;10810;48.270;9.996;2022-08-20T19:18:39;1.20;;;0.80;;
21301;SDS011;10810;48.270;9.996;2022-08-20T19:21:12;1.67;;;1.00;;
21301;SDS011;10810;48.270;9.996;2022-08-20T19:25:23;0.70;;;0.70;;
21301;SDS011;10810;48.270;9.996;2022-08-20T19:30:35;1.08;;;0.85;;
21301;SDS011;10810;48.270;9.996;2022-08-20T19:39:42;1.30;;;0.80;;
21301;SDS011;10810;48.270;9.996;2022-08-20T19:48:51;1.05;;;0.77;;
21301;SDS011;10810;48.270;9.996;2022-08-20T19:51:49;0.95;;;0.70;;
21301;SDS011;10810;48.270;9.996;2022-08-20T19:58:18;1.33;;;0.80;;
21301;SDS011;10810;48.270;9.996;2022-08-20T20:01:50;1.10;;;0.80;;
21301;SDS011;10810;48.270;9.996;2022-08-20T20:14:14;1.45;;;0.80;;
21301;SDS011;10810;48.270;9.996;2022-08-20T20:17:50;0.82;;;0.70;;
21301;SDS011;10810;48.270;9.996;2022-08-20T20:22:28;0.88;;;0.80;;
21301;SDS011;10810;48.270;9.996;2022-08-20T20:34:28;0.65;;;0.60;;
21301;SDS011;10810;48.270;9.996;2022-08-20T20:37:54;0.73;;;0.60;;
21301;SDS011;10810;48.270;9.996;2022-08-20T20:41:34;1.33;;;0.60;;
21301;SDS011;10810;48.270;9.996;2022-08-20T20:45:14;1.08;;;0.70;;
21301;SDS011;10810;48.270;9.996;2022-08-20T20:47:55;1.77;;;0.70;;
21301;SDS011;10810;48.270;9.996;2022-08-20T21:06:50;0.60;;;0.50;;
21301;SDS011;10810;48.270;9.996;2022-08-20T21:09:58;0.50;;;0.50;;
21301;SDS011;10810;48.270;9.996;2022-08-20T21:13:07;0.60;;;0.50;;
21301;SDS011;10810;48.270;9.996;2022-08-20T21:15:55;0.63;;;0.50;;
21301;SDS011;10810;48.270;9.996;2022-08-20T21:28:38;0.95;;;0.60;;
21301;SDS011;10810;48.270;9.996;2022-08-20T21:32:27;0.68;;;0.50;;
21301;SDS011;10810;48.270;9.996;2022-08-20T21:34:36;0.70;;;0.55;;
21301;SDS011;10810;48.270;9.996;2022-08-20T21:37:38;0.50;;;0.47;;
21301;SDS011;10810;48.270;9.996;2022-08-20T21:40:58;0.75;;;0.57;;
21301;SDS011;10810;48.270;9.996;2022-08-20T21:43:53;1.15;;;0.77;;
21301;SDS011;10810;48.270;9.996;2022-08-20T21:47:08;1.65;;;0.70;;
21301;SDS011;10810;48.270;9.996;2022-08-20T21:50:48;0.90;;;0.70;;
21301;SDS011;10810;48.270;9.996;2022-08-20T21:53:22;1.02;;;0.70;;
21301;SDS011;10810;48.270;9.996;2022-08-20T21:56:03;2.35;;;0.68;;
21301;SDS011;10810;48.270;9.996;2022-08-20T22:12:23;1.08;;;0.70;;
21301;SDS011;10810;48.270;9.996;2022-08-20T22:15:33;1.17;;;0.80;;
21301;SDS011;10810;48.270;9.996;2022-08-20T22:18:35;0.95;;;0.70;;
21301;SDS011;10810;48.270;9.996;2022-08-20T22:21:59;0.93;;;0.70;;
21301;SDS011;10810;48.270;9.996;2022-08-20T22:25:16;0.95;;;0.70;;
21301;SDS011;10810;48.270;9.996;2022-08-20T22:31:42;1.17;;;0.80;;
21301;SDS011;10810;48.270;9.996;2022-08-20T22:41:57;1.05;;;0.75;;
21301;SDS011;10810;48.270;9.996;2022-08-20T22:54:05;1.30;;;0.93;;
21301;SDS011;10810;48.270;9.996;2022-08-20T22:56:47;1.10;;;0.90;;
21301;SDS011;10810;48.270;9.996;2022-08-20T22:59:28;1.23;;;0.90;;
21301;SDS011;10810;48.270;9.996;2022-08-20T23:02:35;1.10;;;0.80;;
21301;SDS011;10810;48.270;9.996;2022-08-20T23:05:26;2.45;;;1.10;;
21301;SDS011;10810;48.270;9.996;2022-08-20T23:08:50;1.48;;;0.98;;
21301;SDS011;10810;48.270;9.996;2022-08-20T23:11:22;5.57;;;1.30;;
21301;SDS011;10810;48.270;9.996;2022-08-20T23:14:37;2.17;;;1.00;;
21301;SDS011;10810;48.270;9.996;2022-08-20T23:17:24;1.85;;;1.10;;
21301;SDS011;10810;48.270;9.996;2022-08-20T23:20:06;1.33;;;0.88;;
21301;SDS011;10810;48.270;9.996;2022-08-20T23:23:08;1.45;;;1.02;;
21301;SDS011;10810;48.270;9.996;2022-08-20T23:32:11;1.90;;;1.00;;
21301;SDS011;10810;48.270;9.996;2022-08-20T23:35:14;1.50;;;0.88;;
21301;SDS011;10810;48.270;9.996;2022-08-20T23:44:50;1.48;;;1.00;;
21301;SDS011;10810;48.270;9.996;2022-08-20T23:54:13;3.35;;;1.00;;
